ホワイトホース の空港の天気 - METARとTAF

ホワイトホース国際空港 ( CYXY / YXY ) - カナダ ユーコン準州ホワイトホース
飛行場実況気象(Metar)
観測時間06/24 02:00 PDT (06/24 09:00 UTC)
風向・風速西南西 2m/s
視程10km以上
天気現象周辺で霧
少しの雲 雲底高度 210m
少しの雲 雲底高度 2620m
全天の8割程度の雲 雲底高度 5490m
気温9℃
湿度100%
気圧1016.7hPa
METARCYXY 240900Z 24004KT 25SM VCFG FEW007 FEW086 BKN180 09/09 A2997 RMK ST1AC2AS3 ST TR FG OVR RIVER SLP167
過去の天気等 Google飛行場航空写真 Wunderground天気予報

過去48時間のMETAR

飛行場予報(TAF)
発表時間: 6/23 22:38 PDT (6/24 05:38 UTC)
予報対象時間: 23日23時 PDT ~ 24日23時 PDT
風向・風速南 3m/s
視程10km以上
全天の4割程度の雲 雲底高度 1220m
全天の8割程度の雲 雲底高度 2440m
23日23時 PDT ~ 24日1時 PDT に一時的に
視程10km以上
天気現象弱いしゅう雨
全天の8割程度の雲 雲底高度 1220m
全天を覆う雲 雲底高度 2440m
23日23時 PDT から 確率 30% で
風向・風速不定 8m/s 瞬間風速 13m/s
視程8050m
天気現象雷雨
全天の8割程度の積乱雲 雲底高度 910m
24日1時 PDT から
風向・風速不定 2m/s
視程10km以上
全天の4割程度の雲 雲底高度 180m
全天の8割程度の雲 雲底高度 1830m
24日3時 PDT から 確率 40% で
視程1610m
天気現象もや
全天の8割程度の雲 雲底高度 180m
24日13時 PDT から
風向・風速南南東 4m/s
視程10km以上
天気現象弱いしゅう雨
全天を覆う雲 雲底高度 1830m
24日13時 PDT から 確率 30% で
風向・風速不定 8m/s 瞬間風速 13m/s
視程8050m
天気現象雷雨
全天の8割程度の積乱雲 雲底高度 1220m
24日21時 PDT から
風向・風速南 3m/s
視程10km以上
全天の4割程度の雲 雲底高度 1830m
TAF CYXY 240538Z 2406/2506 18006KT P6SM SCT040 BKN080
TEMPO 2406/2408 P6SM -SHRA BKN040 OVC080
PROB30 2406/2408 VRB15G25KT 5SM TSRA BKN030CB
FM240800 VRB03KT P6SM SCT006 BKN060
PROB40 2410/2416 1SM BR BKN006
FM242000 15008KT P6SM -SHRA OVC060
PROB30 2420/2504 VRB15G25KT 5SM TSRA BKN040CB
FM250400 18006KT P6SM SCT060 RMK NXT FCST BY 241200Z